createdAt,value
2022-12-08T00:02:23.325Z,97361.03
2022-12-08T00:05:05.696Z,97362.22
2022-12-08T00:07:51.136Z,97351.81
2022-12-08T00:10:47.370Z,97358.13
2022-12-08T00:13:05.893Z,97360.94
2022-12-08T00:15:34.723Z,97357.47
2022-12-08T00:18:02.232Z,97364.34
2022-12-08T00:20:29.680Z,97353.16
2022-12-08T00:22:57.525Z,97353.72
2022-12-08T00:25:24.965Z,97346.38
2022-12-08T00:27:52.395Z,97349.72
2022-12-08T00:30:20.131Z,97349.81
2022-12-08T00:32:49.075Z,97345.69
2022-12-08T00:35:19.708Z,97343.25
2022-12-08T00:37:47.443Z,97350.13
2022-12-08T00:40:15.230Z,97345.97
2022-12-08T00:42:42.711Z,97342.38
2022-12-08T00:45:11.030Z,97336.09
2022-12-08T00:47:40.510Z,97329.06
2022-12-08T00:50:10.193Z,97327.31
2022-12-08T00:52:37.972Z,97326.56
2022-12-08T00:55:06.508Z,97337.34
2022-12-08T01:00:15.905Z,97329.56
2022-12-08T01:02:43.407Z,97336.22
2022-12-08T01:05:12.192Z,97333.75
2022-12-08T01:07:39.732Z,97338.03
2022-12-08T01:10:08.690Z,97339.38
2022-12-08T01:12:36.188Z,97337.88
2022-12-08T01:15:03.848Z,97342.22
2022-12-08T01:17:31.382Z,97341.00
2022-12-08T01:19:58.835Z,97337.56
2022-12-08T01:22:27.900Z,97336.56
2022-12-08T01:24:55.255Z,97340.75
2022-12-08T01:27:22.775Z,97332.59
2022-12-08T01:29:50.364Z,97332.72
2022-12-08T01:32:17.819Z,97328.56
2022-12-08T01:34:45.272Z,97342.63
2022-12-08T01:37:13.249Z,97323.47
2022-12-08T01:39:42.176Z,97325.91
2022-12-08T01:42:20.163Z,97326.34
2022-12-08T01:44:55.424Z,97323.72
2022-12-08T01:47:23.892Z,97334.63
2022-12-08T01:49:51.466Z,97325.88
2022-12-08T01:52:27.507Z,97332.69
2022-12-08T01:55:01.491Z,97324.66
2022-12-08T01:57:31.994Z,97330.28
2022-12-08T02:00:03.476Z,97328.63
2022-12-08T02:02:41.649Z,97330.34
2022-12-08T02:05:10.544Z,97317.09
2022-12-08T02:07:38.682Z,97313.09
2022-12-08T02:10:08.715Z,97309.72
2022-12-08T02:12:37.498Z,97312.97
2022-12-08T02:15:05.997Z,97309.47
2022-12-08T02:17:48.046Z,97304.03
2022-12-08T02:20:35.319Z,97296.72
2022-12-08T02:23:11.989Z,97295.19
2022-12-08T02:26:02.119Z,97299.78
2022-12-08T02:28:47.356Z,97280.94
2022-12-08T02:31:26.597Z,97288.13
2022-12-08T02:34:10.350Z,97285.44
2022-12-08T02:36:46.363Z,97282.53
2022-12-08T02:39:28.100Z,97276.38
2022-12-08T02:42:05.984Z,97274.22
2022-12-08T02:44:39.528Z,97274.88
2022-12-08T02:47:11.376Z,97271.25
2022-12-08T02:49:40.252Z,97278.00
2022-12-08T02:52:28.857Z,97268.06
2022-12-08T02:54:59.761Z,97267.59
2022-12-08T02:57:44.015Z,97259.47
2022-12-08T03:00:15.394Z,97255.34
2022-12-08T03:02:49.670Z,97243.25
2022-12-08T03:05:38.202Z,97242.59
2022-12-08T03:08:15.793Z,97242.00
2022-12-08T03:10:47.900Z,97237.28
2022-12-08T03:13:18.243Z,97237.44
2022-12-08T03:15:49.323Z,97245.63
2022-12-08T03:18:20.331Z,97242.09
2022-12-08T03:20:50.656Z,97240.69
2022-12-08T03:23:19.775Z,97238.47
2022-12-08T03:25:57.609Z,97236.94
2022-12-08T03:28:25.496Z,97232.63
2022-12-08T03:30:58.676Z,97232.63
2022-12-08T03:33:31.292Z,97229.13
2022-12-08T03:36:02.672Z,97233.78
2022-12-08T03:38:38.694Z,97234.28
2022-12-08T03:41:21.595Z,97239.53
2022-12-08T03:43:51.598Z,97231.41
2022-12-08T03:48:47.901Z,97225.66
2022-12-08T03:51:17.585Z,97231.06
2022-12-08T03:53:45.447Z,97226.06
2022-12-08T03:56:17.908Z,97227.84
2022-12-08T03:58:45.634Z,97220.84
2022-12-08T04:01:13.745Z,97213.50
2022-12-08T04:03:41.220Z,97208.44
2022-12-08T04:06:08.834Z,97212.50
2022-12-08T04:08:37.655Z,97211.38
2022-12-08T04:11:06.337Z,97210.22
2022-12-08T04:13:33.835Z,97203.50
2022-12-08T04:16:01.400Z,97209.06
2022-12-08T04:18:28.904Z,97205.41
2022-12-08T04:20:56.362Z,97202.72
2022-12-08T04:23:24.195Z,97201.59
2022-12-08T04:25:53.951Z,97202.69
2022-12-08T04:28:21.678Z,97198.19
2022-12-08T04:30:49.718Z,97202.50
2022-12-08T04:33:17.574Z,97193.75
2022-12-08T04:35:45.147Z,97203.84
2022-12-08T04:38:12.666Z,97202.28
2022-12-08T04:40:40.594Z,97192.22
2022-12-08T04:43:09.519Z,97196.47
2022-12-08T04:45:39.982Z,97193.34
2022-12-08T04:48:08.608Z,97194.56
2022-12-08T04:50:36.431Z,97195.47
2022-12-08T04:53:03.911Z,97188.22
2022-12-08T04:55:31.337Z,97191.63
2022-12-08T04:57:58.816Z,97196.06
2022-12-08T05:00:27.627Z,97198.13
2022-12-08T05:02:55.098Z,97190.84
2022-12-08T05:05:22.595Z,97193.50
2022-12-08T05:07:50.082Z,97200.31
2022-12-08T05:10:17.548Z,97187.03
2022-12-08T05:12:45.092Z,97189.75
2022-12-08T05:15:12.551Z,97195.03
2022-12-08T05:17:41.331Z,97188.16
2022-12-08T05:20:09.771Z,97192.41
2022-12-08T05:22:37.243Z,97187.22
2022-12-08T05:25:05.104Z,97180.97
2022-12-08T05:27:32.556Z,97186.06
2022-12-08T05:30:00.034Z,97179.56
2022-12-08T05:32:27.584Z,97183.25
2022-12-08T05:34:56.383Z,97182.69
2022-12-08T05:37:23.832Z,97187.13
2022-12-08T05:39:51.303Z,97177.94
2022-12-08T05:42:24.461Z,97183.03
2022-12-08T05:44:52.396Z,97181.78
2022-12-08T05:47:19.932Z,97175.47
2022-12-08T05:49:47.369Z,97174.13
2022-12-08T05:52:16.892Z,97181.59
2022-12-08T05:54:44.487Z,97173.69
2022-12-08T05:57:11.989Z,97179.09
2022-12-08T05:59:40.067Z,97175.00
2022-12-08T06:02:08.720Z,97177.97
2022-12-08T06:04:36.620Z,97175.84
2022-12-08T06:07:04.132Z,97181.09
2022-12-08T06:09:32.957Z,97174.94
2022-12-08T06:12:00.439Z,97173.59
2022-12-08T06:14:27.889Z,97174.84
2022-12-08T06:16:55.388Z,97164.59
2022-12-08T06:19:22.978Z,97176.31
2022-12-08T06:21:50.459Z,97172.22
2022-12-08T06:24:17.927Z,97166.41
2022-12-08T06:26:46.853Z,97170.47
2022-12-08T06:29:14.812Z,97167.22
2022-12-08T06:31:42.307Z,97173.97
2022-12-08T06:34:09.792Z,97173.28
2022-12-08T06:36:37.508Z,97177.22
2022-12-08T06:39:05.194Z,97173.81
2022-12-08T06:41:32.876Z,97179.28
2022-12-08T06:44:01.684Z,97184.56
2022-12-08T06:46:29.162Z,97178.31
2022-12-08T06:48:56.650Z,97182.31
2022-12-08T06:51:24.311Z,97172.69
2022-12-08T06:53:51.767Z,97179.00
2022-12-08T06:56:20.410Z,97187.75
2022-12-08T06:58:52.569Z,97185.53
2022-12-08T07:01:22.208Z,97180.66
2022-12-08T07:03:49.847Z,97179.78
2022-12-08T07:06:20.482Z,97183.00
2022-12-08T07:08:47.963Z,97189.06
2022-12-08T07:11:21.199Z,97191.06
2022-12-08T07:13:49.728Z,97192.03
2022-12-08T07:16:17.267Z,97197.28
2022-12-08T07:18:46.083Z,97203.75
2022-12-08T07:21:15.669Z,97197.16
2022-12-08T07:23:43.599Z,97196.75
2022-12-08T07:26:12.891Z,97202.00
2022-12-08T07:28:42.464Z,97203.31
2022-12-08T07:31:18.844Z,97194.06
2022-12-08T07:33:47.968Z,97191.22
2022-12-08T07:36:15.483Z,97185.47
2022-12-08T07:38:43.125Z,97194.84
2022-12-08T07:41:13.940Z,97193.25
2022-12-08T07:43:42.160Z,97191.34
2022-12-08T07:46:12.344Z,97202.59
2022-12-08T07:48:39.999Z,97183.72
2022-12-08T07:51:09.640Z,97203.34
2022-12-08T07:53:37.136Z,97198.84
2022-12-08T07:56:07.011Z,97192.25
2022-12-08T07:58:34.911Z,97187.00
2022-12-08T08:01:02.488Z,97190.38
2022-12-08T08:03:30.279Z,97187.44
2022-12-08T08:06:03.910Z,97186.78
2022-12-08T08:08:32.830Z,97184.16
2022-12-08T08:11:00.357Z,97185.31
2022-12-08T08:13:27.817Z,97187.53
2022-12-08T08:15:55.458Z,97184.34
2022-12-08T08:18:22.968Z,97190.97
2022-12-08T08:20:50.690Z,97190.94
2022-12-08T08:23:18.359Z,97182.84
2022-12-08T08:25:47.161Z,97184.19
2022-12-08T08:28:15.083Z,97179.47
2022-12-08T08:30:44.608Z,97183.81
2022-12-08T08:33:12.124Z,97183.97
2022-12-08T08:35:39.627Z,97191.66
2022-12-08T08:38:07.225Z,97189.47
2022-12-08T08:40:34.744Z,97194.63
2022-12-08T08:43:04.092Z,97186.97
2022-12-08T08:45:31.815Z,97196.38
2022-12-08T08:47:59.423Z,97197.09
2022-12-08T08:50:30.535Z,97190.13
2022-12-08T08:53:01.865Z,97194.06
2022-12-08T08:55:30.514Z,97193.53
2022-12-08T08:57:57.960Z,97197.72
2022-12-08T09:00:26.921Z,97197.25
2022-12-08T09:02:54.363Z,97191.50
2022-12-08T09:05:21.825Z,97198.50
2022-12-08T09:07:49.291Z,97193.75
2022-12-08T09:10:16.954Z,97196.50
2022-12-08T09:12:44.647Z,97193.94
2022-12-08T09:15:12.367Z,97184.38
2022-12-08T09:17:41.209Z,97191.81
2022-12-08T09:20:09.577Z,97188.66
2022-12-08T09:22:37.019Z,97188.09
2022-12-08T09:25:04.767Z,97179.53
2022-12-08T09:27:35.275Z,97184.31
2022-12-08T09:30:03.471Z,97193.38
2022-12-08T09:32:31.101Z,97188.94
2022-12-08T09:35:02.677Z,97184.22
2022-12-08T09:37:32.996Z,97183.53
2022-12-08T09:40:00.485Z,97182.97
2022-12-08T09:42:36.613Z,97190.09
2022-12-08T09:45:10.030Z,97185.25
2022-12-08T09:47:41.563Z,97178.97
2022-12-08T09:50:15.353Z,97175.44
2022-12-08T09:52:46.851Z,97169.03
2022-12-08T09:55:21.720Z,97170.34
2022-12-08T09:57:56.701Z,97154.31
2022-12-08T10:00:24.460Z,97160.44
2022-12-08T10:02:51.975Z,97155.66
2022-12-08T10:05:21.715Z,97154.63
2022-12-08T10:07:55.012Z,97151.19
2022-12-08T10:10:30.742Z,97153.84
2022-12-08T10:13:07.183Z,97140.75
2022-12-08T10:15:42.604Z,97148.22
2022-12-08T10:18:17.545Z,97140.59
2022-12-08T10:20:48.279Z,97134.97
2022-12-08T10:23:22.419Z,97138.13
2022-12-08T10:25:56.047Z,97129.03
2022-12-08T10:28:23.512Z,97127.03
2022-12-08T10:30:50.997Z,97123.72
2022-12-08T10:33:20.395Z,97116.09
2022-12-08T10:35:51.385Z,97127.19
2022-12-08T10:38:22.866Z,97116.94
2022-12-08T10:40:53.028Z,97112.63
2022-12-08T10:43:25.069Z,97114.78
2022-12-08T10:45:52.914Z,97107.50
2022-12-08T10:48:23.381Z,97108.16
2022-12-08T10:50:57.175Z,97096.94
2022-12-08T10:53:26.878Z,97096.59
2022-12-08T10:56:08.260Z,97092.16
2022-12-08T10:58:40.273Z,97090.34
2022-12-08T11:01:12.814Z,97083.53
2022-12-08T11:03:45.989Z,97087.34
2022-12-08T11:06:18.870Z,97086.84
2022-12-08T11:08:50.833Z,97079.72
2022-12-08T11:11:21.990Z,97079.53
2022-12-08T11:13:52.395Z,97073.09
2022-12-08T11:16:20.981Z,97066.63
2022-12-08T11:18:57.557Z,97075.06
2022-12-08T11:21:35.228Z,97072.28
2022-12-08T11:24:21.616Z,97066.81
2022-12-08T11:26:52.216Z,97057.22
2022-12-08T11:29:20.168Z,97052.72
2022-12-08T11:31:53.320Z,97055.69
2022-12-08T11:34:27.618Z,97050.06
2022-12-08T11:36:57.307Z,97047.59
2022-12-08T11:39:27.733Z,97051.56
2022-12-08T11:41:57.405Z,97044.75
2022-12-08T11:44:32.600Z,97051.38
2022-12-08T11:47:02.579Z,97046.78
2022-12-08T11:49:35.285Z,97051.75
2022-12-08T11:52:12.238Z,97044.47
2022-12-08T11:54:45.878Z,97038.50
2022-12-08T11:57:16.330Z,97050.06
2022-12-08T11:59:46.945Z,97047.09
2022-12-08T12:02:17.052Z,97048.41
2022-12-08T12:04:52.051Z,97050.06
2022-12-08T12:08:00.312Z,97052.06
2022-12-08T12:10:40.069Z,97047.94
2022-12-08T12:13:24.076Z,97036.03
2022-12-08T12:16:28.709Z,97042.94
2022-12-08T12:19:00.431Z,97037.00
2022-12-08T12:21:34.102Z,97037.19
2022-12-08T12:24:07.944Z,97032.69
2022-12-08T12:26:38.773Z,97031.00
2022-12-08T12:29:09.244Z,97027.53
2022-12-08T12:31:41.823Z,97032.19
2022-12-08T12:34:16.667Z,97037.34
2022-12-08T12:36:53.664Z,97036.66
2022-12-08T12:39:26.110Z,97041.59
2022-12-08T12:41:55.894Z,97036.66
2022-12-08T12:44:36.944Z,97035.50
2022-12-08T12:47:08.350Z,97034.53
2022-12-08T12:50:07.866Z,97036.69
2022-12-08T12:52:48.400Z,97032.84
2022-12-08T12:55:51.879Z,97037.34
2022-12-08T12:58:37.435Z,97031.19
2022-12-08T13:01:56.875Z,97024.56
2022-12-08T13:04:33.887Z,97023.56
2022-12-08T13:07:01.895Z,97025.41
2022-12-08T13:09:34.386Z,97018.78
2022-12-08T13:12:11.288Z,97022.06
2022-12-08T13:14:46.239Z,97023.88
2022-12-08T13:17:17.883Z,97019.59
2022-12-08T13:19:51.772Z,97011.97
2022-12-08T13:22:49.047Z,97011.63
2022-12-08T13:25:49.105Z,97011.97
2022-12-08T13:28:23.391Z,97008.25
2022-12-08T13:30:51.868Z,97008.34
2022-12-08T13:33:25.822Z,97004.50
2022-12-08T13:36:02.746Z,97001.38
2022-12-08T13:38:35.445Z,97008.50
2022-12-08T13:41:07.939Z,96999.09
2022-12-08T13:44:02.145Z,97004.06
2022-12-08T13:51:15.941Z,97011.00
2022-12-08T13:56:37.239Z,97005.75
2022-12-08T13:58:07.168Z,97005.03
2022-12-08T14:00:36.053Z,97009.38
2022-12-08T14:03:03.671Z,97000.09
2022-12-08T14:06:11.089Z,97003.94
2022-12-08T14:11:36.792Z,97014.16
2022-12-08T14:14:06.739Z,97012.19
2022-12-08T14:16:39.396Z,97013.78
2022-12-08T14:19:19.763Z,97001.72
2022-12-08T14:21:48.725Z,97010.66
2022-12-08T14:24:16.179Z,97007.69
2022-12-08T14:26:47.491Z,97008.47
2022-12-08T14:29:38.448Z,97003.41
2022-12-08T14:32:22.453Z,97000.56
2022-12-08T14:34:56.114Z,96991.03
2022-12-08T14:37:25.980Z,96992.09
2022-12-08T14:39:54.702Z,96991.16
2022-12-08T14:42:25.515Z,96993.25
2022-12-08T14:44:59.179Z,96996.25
2022-12-08T14:47:32.200Z,96993.41
2022-12-08T14:49:59.781Z,97000.06
2022-12-08T14:52:28.396Z,96989.31
2022-12-08T14:54:56.450Z,96994.59
2022-12-08T14:57:24.154Z,96995.09
2022-12-08T14:59:51.738Z,96991.09
2022-12-08T15:02:29.026Z,97004.97
2022-12-08T15:05:01.405Z,97002.53
2022-12-08T15:07:30.865Z,97002.38
2022-12-08T15:10:21.126Z,97007.97
2022-12-08T15:13:04.581Z,97003.69
2022-12-08T15:15:33.804Z,97001.38
2022-12-08T15:18:13.646Z,97001.56
2022-12-08T15:20:45.317Z,97006.50
2022-12-08T15:23:22.446Z,97000.03
2022-12-08T15:25:50.658Z,97004.69
2022-12-08T15:28:21.999Z,97005.31
2022-12-08T15:30:51.186Z,97005.84
2022-12-08T15:33:18.753Z,97006.34
2022-12-08T15:35:48.835Z,97008.31
2022-12-08T15:38:20.937Z,97003.47
2022-12-08T15:40:48.436Z,97003.16
2022-12-08T15:43:15.920Z,96997.69
2022-12-08T15:45:56.269Z,97001.19
2022-12-08T15:48:28.678Z,97000.88
2022-12-08T15:50:57.930Z,96996.88
2022-12-08T15:53:25.937Z,97000.00
2022-12-08T15:56:25.884Z,97003.50
2022-12-08T15:58:57.350Z,97001.53
2022-12-08T16:01:26.091Z,97002.88
2022-12-08T16:09:39.229Z,97000.38
2022-12-08T16:13:06.920Z,97000.22
2022-12-08T16:15:51.222Z,96995.91
2022-12-08T16:18:08.001Z,96994.91
2022-12-08T16:21:06.128Z,96991.91
2022-12-08T16:23:42.236Z,96997.06
2022-12-08T16:29:00.475Z,96999.06
2022-12-08T16:31:28.013Z,96999.72
2022-12-08T16:33:55.475Z,96994.91
2022-12-08T16:36:22.993Z,96991.09
2022-12-08T16:38:51.798Z,96993.06
2022-12-08T16:41:36.790Z,96986.78
2022-12-08T16:44:06.580Z,96993.72
2022-12-08T16:46:34.757Z,96989.63
2022-12-08T16:49:02.212Z,96994.56
2022-12-08T16:51:29.715Z,96993.72
2022-12-08T16:53:58.804Z,96991.91
2022-12-08T16:56:32.603Z,96989.25
2022-12-08T16:59:01.028Z,96988.59
2022-12-08T17:01:28.564Z,96990.25
2022-12-08T17:04:29.369Z,96998.22
2022-12-08T17:06:43.546Z,96998.38
2022-12-08T17:09:12.352Z,96999.19
2022-12-08T17:11:43.415Z,96992.91
2022-12-08T17:14:11.808Z,96992.91
2022-12-08T17:16:39.608Z,96992.25
2022-12-08T17:19:07.210Z,96995.72
2022-12-08T17:21:34.800Z,96991.25
2022-12-08T17:24:02.498Z,96986.97
2022-12-08T17:26:31.469Z,96988.59
2022-12-08T17:29:01.236Z,96991.25
2022-12-08T17:31:30.875Z,96994.09
2022-12-08T17:33:59.608Z,96993.25
2022-12-08T17:36:27.147Z,96991.59
2022-12-08T17:38:54.926Z,96987.13
2022-12-08T17:41:22.414Z,96987.94
2022-12-08T17:43:51.327Z,96987.47
2022-12-08T17:46:19.172Z,96993.41
2022-12-08T17:48:46.853Z,96996.88
2022-12-08T17:51:14.602Z,96992.59
2022-12-08T17:53:42.316Z,96997.06
2022-12-08T17:56:16.230Z,96991.75
2022-12-08T17:58:44.055Z,97005.19
2022-12-08T18:01:13.751Z,96997.06
2022-12-08T18:03:41.291Z,96999.88
2022-12-08T18:06:11.131Z,97005.00
2022-12-08T18:08:39.435Z,96993.75
2022-12-08T18:11:13.359Z,96993.75
2022-12-08T18:13:41.017Z,96999.88
2022-12-08T18:16:08.696Z,96997.41
2022-12-08T18:18:37.548Z,96993.59
2022-12-08T18:21:05.266Z,96992.78
2022-12-08T18:23:32.761Z,96992.28
2022-12-08T18:26:00.221Z,96991.28
2022-12-08T18:28:27.678Z,96996.56
2022-12-08T18:30:56.224Z,96990.44
2022-12-08T18:33:23.815Z,96993.91
2022-12-08T18:35:52.641Z,96989.44
2022-12-08T18:38:20.204Z,96985.31
2022-12-08T18:40:47.635Z,96981.03
2022-12-08T18:43:15.087Z,96982.50
2022-12-08T18:45:42.771Z,96980.84
2022-12-08T18:48:10.308Z,96973.91
2022-12-08T18:50:40.054Z,96975.25
2022-12-08T18:53:08.843Z,96974.88
2022-12-08T18:55:38.077Z,96971.44
2022-12-08T18:58:05.547Z,96975.25
2022-12-08T19:00:32.980Z,96974.88
2022-12-08T19:03:00.611Z,96971.75
2022-12-08T19:05:28.246Z,96971.75
2022-12-08T19:07:55.735Z,96971.78
2022-12-08T19:10:25.224Z,96966.63
2022-12-08T19:12:53.555Z,96966.47
2022-12-08T19:15:21.527Z,96966.63
2022-12-08T19:17:48.979Z,96969.09
2022-12-08T19:20:16.905Z,96971.75
2022-12-08T19:22:44.399Z,96974.25
2022-12-08T19:25:12.146Z,96976.22
2022-12-08T19:27:41.057Z,96973.94
2022-12-08T19:30:10.691Z,96981.38
2022-12-08T19:32:38.393Z,96975.25
2022-12-08T19:35:07.361Z,96967.63
2022-12-08T19:37:35.432Z,96967.44
2022-12-08T19:40:20.668Z,96975.09
2022-12-08T19:43:07.295Z,96981.19
2022-12-08T19:45:36.545Z,96966.97
2022-12-08T19:48:04.480Z,96961.53
2022-12-08T19:50:37.905Z,96967.84
2022-12-08T19:53:07.120Z,96970.22
2022-12-08T19:55:34.792Z,96979.50
2022-12-08T19:58:04.450Z,96973.66
2022-12-08T20:00:33.652Z,96968.34
2022-12-08T20:03:02.683Z,96974.66
2022-12-08T20:05:30.563Z,96959.44
2022-12-08T20:07:58.813Z,96966.19
2022-12-08T20:10:28.959Z,96958.78
2022-12-08T20:13:16.956Z,96961.56
2022-12-08T20:15:46.333Z,96964.06
2022-12-08T20:18:17.348Z,96962.03
2022-12-08T20:20:46.535Z,96970.69
2022-12-08T20:23:14.710Z,96969.81
2022-12-08T20:25:43.573Z,96962.69
2022-12-08T20:28:14.501Z,96960.28
2022-12-08T20:30:44.163Z,96959.63
2022-12-08T20:33:15.001Z,96957.09
2022-12-08T20:35:43.636Z,96962.03
2022-12-08T20:38:12.473Z,96963.69
2022-12-08T20:40:42.887Z,96962.88
2022-12-08T20:43:11.083Z,96968.38
2022-12-08T20:45:41.953Z,96965.22
2022-12-08T20:48:09.576Z,96966.53
2022-12-08T20:50:38.708Z,96966.53
2022-12-08T20:53:08.673Z,96963.53
2022-12-08T20:55:36.532Z,96957.25
2022-12-08T20:58:04.057Z,96960.56
2022-12-08T21:00:34.246Z,96957.91
2022-12-08T21:03:01.891Z,96965.84
2022-12-08T21:05:29.705Z,96963.22
2022-12-08T21:07:59.117Z,96959.53
2022-12-08T21:10:26.784Z,96958.06
2022-12-08T21:12:54.432Z,96956.25
2022-12-08T21:15:22.163Z,96962.38
2022-12-08T21:17:49.793Z,96959.88
2022-12-08T21:20:17.256Z,96954.78
2022-12-08T21:22:44.947Z,96954.59
2022-12-08T21:25:13.770Z,96962.53
2022-12-08T21:27:41.257Z,96957.44
2022-12-08T21:30:11.360Z,96957.44
2022-12-08T21:32:39.720Z,96950.28
2022-12-08T21:35:08.627Z,96952.94
2022-12-08T21:37:36.391Z,96951.94
2022-12-08T21:40:04.887Z,96941.22
2022-12-08T21:42:46.402Z,96951.31
2022-12-08T21:45:16.843Z,96944.19
2022-12-08T21:47:45.227Z,96951.47
2022-12-08T21:50:13.662Z,96944.38
2022-12-08T21:52:43.333Z,96946.03
2022-12-08T21:55:14.821Z,96942.88
2022-12-08T21:57:44.190Z,96941.03
2022-12-08T22:00:15.911Z,96945.72
2022-12-08T22:02:44.342Z,96944.00
2022-12-08T22:05:12.337Z,96947.00
2022-12-08T22:07:41.767Z,96953.94
2022-12-08T22:10:11.115Z,96958.31
2022-12-08T22:12:41.763Z,96950.84
2022-12-08T22:15:11.964Z,96958.75
2022-12-08T22:17:41.310Z,96953.97
2022-12-08T22:20:12.847Z,96944.22
2022-12-08T22:22:40.927Z,96943.53
2022-12-08T22:25:11.897Z,96942.38
2022-12-08T22:27:40.635Z,96938.09
2022-12-08T22:30:11.875Z,96945.56
2022-12-08T22:32:42.734Z,96942.22
2022-12-08T22:35:10.815Z,96948.34
2022-12-08T22:37:39.091Z,96939.91
2022-12-08T22:40:08.800Z,96935.59
2022-12-08T22:42:36.504Z,96931.13
2022-12-08T22:45:04.038Z,96934.28
2022-12-08T22:47:32.848Z,96932.63
2022-12-08T22:50:00.415Z,96929.66
2022-12-08T22:52:27.940Z,96922.41
2022-12-08T22:54:55.359Z,96927.81
2022-12-08T22:57:22.806Z,96918.06
2022-12-08T22:59:50.257Z,96916.31
2022-12-08T23:02:17.934Z,96918.16
2022-12-08T23:04:47.264Z,96916.75
2022-12-08T23:07:14.875Z,96930.19
2022-12-08T23:09:42.428Z,96923.25
2022-12-08T23:12:09.882Z,96932.97
2022-12-08T23:14:37.358Z,96926.56
2022-12-08T23:17:04.970Z,96925.06
2022-12-08T23:19:32.799Z,96922.06
2022-12-08T23:22:01.614Z,96927.88
2022-12-08T23:24:30.532Z,96928.69
2022-12-08T23:26:58.126Z,96924.56
2022-12-08T23:29:25.616Z,96922.25
2022-12-08T23:31:53.138Z,96925.75
2022-12-08T23:34:20.912Z,96919.63
2022-12-08T23:36:48.571Z,96917.63
2022-12-08T23:39:17.730Z,96911.50
2022-12-08T23:41:45.180Z,96909.53
2022-12-08T23:44:13.436Z,96908.34
2022-12-08T23:46:41.194Z,96915.66
2022-12-08T23:49:08.717Z,96907.56
2022-12-08T23:51:36.244Z,96903.75
2022-12-08T23:54:07.045Z,96899.44
2022-12-08T23:56:35.875Z,96894.66
2022-12-08T23:59:03.322Z,96888.88
